createdAt,value
2023-05-02T00:00:09.521Z,21.61
2023-05-02T00:01:09.582Z,21.61
2023-05-02T00:02:09.691Z,21.61
2023-05-02T00:03:09.813Z,21.60
2023-05-02T00:04:09.951Z,21.60
2023-05-02T00:05:09.869Z,21.59
2023-05-02T00:06:10.016Z,21.58
2023-05-02T00:07:09.977Z,21.58
2023-05-02T00:08:10.044Z,21.58
2023-05-02T00:09:10.143Z,21.58
2023-05-02T00:10:10.175Z,21.56
2023-05-02T00:11:10.255Z,21.56
2023-05-02T00:12:10.350Z,21.56
2023-05-02T00:13:10.390Z,21.55
2023-05-02T00:14:10.461Z,21.56
2023-05-02T00:15:10.494Z,21.56
2023-05-02T00:16:10.559Z,21.55
2023-05-02T00:17:10.640Z,21.55
2023-05-02T00:18:10.719Z,21.55
2023-05-02T00:19:10.775Z,21.55
2023-05-02T00:20:10.828Z,21.54
2023-05-02T00:21:10.891Z,21.54
2023-05-02T00:22:10.933Z,21.53
2023-05-02T00:23:10.978Z,21.53
2023-05-02T00:24:11.158Z,21.53
2023-05-02T00:25:11.141Z,21.53
2023-05-02T00:26:11.232Z,21.53
2023-05-02T00:27:11.246Z,21.53
2023-05-02T00:28:11.325Z,21.52
2023-05-02T00:29:11.414Z,21.52
2023-05-02T00:30:11.463Z,21.51
2023-05-02T00:31:11.553Z,21.52
2023-05-02T00:32:11.547Z,21.52
2023-05-02T00:33:11.694Z,21.51
2023-05-02T00:34:11.680Z,21.51
2023-05-02T00:35:11.719Z,21.51
2023-05-02T00:36:11.783Z,21.50
2023-05-02T00:37:11.827Z,21.51
2023-05-02T00:38:11.886Z,21.50
2023-05-02T00:39:11.947Z,21.50
2023-05-02T00:40:11.960Z,21.50
2023-05-02T00:41:12.036Z,21.49
2023-05-02T00:42:12.086Z,21.49
2023-05-02T00:43:12.123Z,21.49
2023-05-02T00:44:12.150Z,21.49
2023-05-02T00:45:12.198Z,21.49
2023-05-02T00:46:12.433Z,21.48
2023-05-02T00:47:12.292Z,21.48
2023-05-02T00:48:12.386Z,21.48
2023-05-02T00:49:12.391Z,21.49
2023-05-02T00:50:12.444Z,21.48
2023-05-02T00:51:12.511Z,21.47
2023-05-02T00:52:12.523Z,21.47
2023-05-02T00:53:12.548Z,21.47
2023-05-02T00:54:12.613Z,21.46
2023-05-02T00:55:12.667Z,21.46
2023-05-02T00:56:12.693Z,21.46
2023-05-02T00:57:12.741Z,21.46
2023-05-02T00:58:12.772Z,21.46
2023-05-02T00:59:12.802Z,21.45
2023-05-02T01:00:12.800Z,21.45
2023-05-02T01:01:12.850Z,21.45
2023-05-02T01:02:13.003Z,21.45
2023-05-02T01:03:13.030Z,21.44
2023-05-02T01:04:12.988Z,21.45
2023-05-02T01:05:12.980Z,21.44
2023-05-02T01:06:13.086Z,21.44
2023-05-02T01:07:13.056Z,21.44
2023-05-02T01:08:13.095Z,21.44
2023-05-02T01:09:13.153Z,21.44
2023-05-02T01:10:13.158Z,21.43
2023-05-02T01:11:13.216Z,21.43
2023-05-02T01:12:13.245Z,21.43
2023-05-02T01:13:13.253Z,21.43
2023-05-02T01:14:13.290Z,21.42
2023-05-02T01:15:13.288Z,21.42
2023-05-02T01:16:13.367Z,21.42
2023-05-02T01:17:13.337Z,21.42
2023-05-02T01:18:13.342Z,21.42
2023-05-02T01:19:13.323Z,21.41
2023-05-02T01:20:13.338Z,21.41
2023-05-02T01:21:13.374Z,21.40
2023-05-02T01:22:13.368Z,21.40
2023-05-02T01:23:13.378Z,21.40
2023-05-02T01:24:13.394Z,21.41
2023-05-02T01:25:13.404Z,21.41
2023-05-02T01:26:13.406Z,21.40
2023-05-02T01:27:13.452Z,21.40
2023-05-02T01:28:13.456Z,21.39
2023-05-02T01:29:13.484Z,21.40
2023-05-02T01:30:13.480Z,21.39
2023-05-02T01:31:13.572Z,21.38
2023-05-02T01:32:13.466Z,21.39
2023-05-02T01:33:13.500Z,21.38
2023-05-02T01:34:13.481Z,21.37
2023-05-02T01:35:13.444Z,21.38
2023-05-02T01:36:13.448Z,21.38
2023-05-02T01:37:13.435Z,21.37
2023-05-02T01:38:13.408Z,21.37
2023-05-02T01:39:13.416Z,21.37
2023-05-02T01:40:13.430Z,21.37
2023-05-02T01:41:13.411Z,21.37
2023-05-02T01:42:13.398Z,21.36
2023-05-02T01:43:13.485Z,21.36
2023-05-02T01:44:13.408Z,21.37
2023-05-02T01:45:13.447Z,21.36
2023-05-02T01:46:13.487Z,21.36
2023-05-02T01:47:13.562Z,21.35
2023-05-02T01:48:13.445Z,21.36
2023-05-02T01:49:13.437Z,21.35
2023-05-02T01:50:13.439Z,21.34
2023-05-02T01:51:13.410Z,21.34
2023-05-02T01:52:13.444Z,21.34
2023-05-02T01:53:13.405Z,21.33
2023-05-02T01:54:13.422Z,21.34
2023-05-02T01:55:13.443Z,21.33
2023-05-02T01:56:13.420Z,21.33
2023-05-02T01:57:13.408Z,21.33
2023-05-02T01:58:13.403Z,21.33
2023-05-02T01:59:13.410Z,21.33
2023-05-02T02:00:13.416Z,21.33
2023-05-02T02:01:13.435Z,21.32
2023-05-02T02:02:13.400Z,21.32
2023-05-02T02:03:13.430Z,21.32
2023-05-02T02:04:13.422Z,21.33
2023-05-02T02:05:13.388Z,21.32
2023-05-02T02:06:13.372Z,21.31
2023-05-02T02:07:13.395Z,21.32
2023-05-02T02:08:14.284Z,21.31
2023-05-02T02:09:13.370Z,21.31
2023-05-02T02:10:13.421Z,21.31
2023-05-02T02:11:13.389Z,21.30
2023-05-02T02:12:13.407Z,21.30
2023-05-02T02:13:13.380Z,21.30
2023-05-02T02:14:13.357Z,21.30
2023-05-02T02:15:13.361Z,21.30
2023-05-02T02:16:13.390Z,21.30
2023-05-02T02:17:13.387Z,21.29
2023-05-02T02:18:13.421Z,21.29
2023-05-02T02:19:13.344Z,21.29
2023-05-02T02:20:13.358Z,21.28
2023-05-02T02:21:13.378Z,21.28
2023-05-02T02:22:13.375Z,21.29
2023-05-02T02:23:13.360Z,21.28
2023-05-02T02:24:13.368Z,21.28
2023-05-02T02:25:13.356Z,21.27
2023-05-02T02:26:13.365Z,21.27
2023-05-02T02:27:13.358Z,21.27
2023-05-02T02:28:13.362Z,21.27
2023-05-02T02:29:13.359Z,21.27
2023-05-02T02:30:13.358Z,21.27
2023-05-02T02:31:13.383Z,21.27
2023-05-02T02:32:13.367Z,21.26
2023-05-02T02:33:13.419Z,21.25
2023-05-02T02:34:13.367Z,21.26
2023-05-02T02:35:13.345Z,21.25
2023-05-02T02:36:13.332Z,21.26
2023-05-02T02:37:13.343Z,21.26
2023-05-02T02:38:13.323Z,21.25
2023-05-02T02:39:13.367Z,21.26
2023-05-02T02:40:13.338Z,21.25
2023-05-02T02:41:13.348Z,21.25
2023-05-02T02:42:13.358Z,21.25
2023-05-02T02:43:13.342Z,21.25
2023-05-02T02:44:13.761Z,21.24
2023-05-02T02:45:13.325Z,21.24
2023-05-02T02:46:13.350Z,21.24
2023-05-02T02:47:13.319Z,21.24
2023-05-02T02:48:13.394Z,21.23
2023-05-02T02:49:13.339Z,21.23
2023-05-02T02:50:13.300Z,21.23
2023-05-02T02:51:13.333Z,21.23
2023-05-02T02:52:13.327Z,21.23
2023-05-02T02:53:13.336Z,21.23
2023-05-02T02:54:25.902Z,21.23
2023-05-02T02:55:14.297Z,21.22
2023-05-02T02:56:13.312Z,21.22
2023-05-02T02:57:13.273Z,21.21
2023-05-02T02:58:13.275Z,21.23
2023-05-02T02:59:13.283Z,21.22
2023-05-02T03:00:13.291Z,21.23
2023-05-02T03:01:13.347Z,21.22
2023-05-02T03:02:13.253Z,21.21
2023-05-02T03:03:13.412Z,21.22
2023-05-02T03:04:13.280Z,21.22
2023-05-02T03:05:13.232Z,21.21
2023-05-02T03:06:13.274Z,21.21
2023-05-02T03:07:13.248Z,21.21
2023-05-02T03:08:13.210Z,21.21
2023-05-02T03:09:14.856Z,21.21
2023-05-02T03:10:13.176Z,21.21
2023-05-02T03:11:13.177Z,21.21
2023-05-02T03:12:13.202Z,21.21
2023-05-02T03:13:13.190Z,21.19
2023-05-02T03:14:13.226Z,21.19
2023-05-02T03:15:13.158Z,21.20
2023-05-02T03:16:13.196Z,21.20
2023-05-02T03:17:13.168Z,21.19
2023-05-02T03:18:13.240Z,21.19
2023-05-02T03:19:13.132Z,21.19
2023-05-02T03:20:13.131Z,21.19
2023-05-02T03:21:13.132Z,21.19
2023-05-02T03:22:13.123Z,21.18
2023-05-02T03:23:13.113Z,21.19
2023-05-02T03:24:13.089Z,21.18
2023-05-02T03:25:13.102Z,21.18
2023-05-02T03:26:13.097Z,21.18
2023-05-02T03:27:13.089Z,21.17
2023-05-02T03:28:13.092Z,21.18
2023-05-02T03:29:13.088Z,21.18
2023-05-02T03:30:13.061Z,21.18
2023-05-02T03:31:13.150Z,21.17
2023-05-02T03:32:13.269Z,21.18
2023-05-02T03:33:13.100Z,21.17
2023-05-02T03:34:13.052Z,21.17
2023-05-02T03:35:13.025Z,21.17
2023-05-02T03:36:13.021Z,21.17
2023-05-02T03:37:13.002Z,21.17
2023-05-02T03:38:13.014Z,21.16
2023-05-02T03:39:12.993Z,21.16
2023-05-02T03:40:13.005Z,21.16
2023-05-02T03:41:12.993Z,21.16
2023-05-02T03:42:12.986Z,21.16
2023-05-02T03:43:12.982Z,21.15
2023-05-02T03:44:12.959Z,21.16
2023-05-02T03:45:12.968Z,21.16
2023-05-02T03:46:12.988Z,21.16
2023-05-02T03:47:13.121Z,21.15
2023-05-02T03:48:12.972Z,21.15
2023-05-02T03:49:12.943Z,21.15
2023-05-02T03:50:12.963Z,21.16
2023-05-02T03:51:13.801Z,21.15
2023-05-02T03:52:12.908Z,21.14
2023-05-02T03:53:12.944Z,21.15
2023-05-02T03:54:12.950Z,21.14
2023-05-02T03:55:13.097Z,21.14
2023-05-02T03:56:12.931Z,21.14
2023-05-02T03:57:12.954Z,21.14
2023-05-02T03:58:12.974Z,21.14
2023-05-02T03:59:12.982Z,21.13
2023-05-02T04:00:12.978Z,21.14
2023-05-02T04:01:13.019Z,21.14
2023-05-02T04:02:13.067Z,21.14
2023-05-02T04:03:13.085Z,21.14
2023-05-02T04:04:13.101Z,21.13
2023-05-02T04:05:13.060Z,21.14
2023-05-02T04:06:13.188Z,21.13
2023-05-02T04:07:13.049Z,21.13
2023-05-02T04:08:13.093Z,21.13
2023-05-02T04:09:13.089Z,21.13
2023-05-02T04:10:13.111Z,21.13
2023-05-02T04:11:13.099Z,21.13
2023-05-02T04:12:13.120Z,21.13
2023-05-02T04:13:13.101Z,21.13
2023-05-02T04:14:13.143Z,21.12
2023-05-02T04:15:13.134Z,21.13
2023-05-02T04:16:13.220Z,21.12
2023-05-02T04:17:13.182Z,21.12
2023-05-02T04:18:13.243Z,21.12
2023-05-02T04:19:13.195Z,21.12
2023-05-02T04:20:13.195Z,21.12
2023-05-02T04:21:13.177Z,21.11
2023-05-02T04:22:13.228Z,21.11
2023-05-02T04:23:13.219Z,21.11
2023-05-02T04:24:13.248Z,21.11
2023-05-02T04:25:13.245Z,21.11
2023-05-02T04:26:13.296Z,21.11
2023-05-02T04:27:15.328Z,21.10
2023-05-02T04:28:13.301Z,21.11
2023-05-02T04:29:13.299Z,21.10
2023-05-02T04:30:13.304Z,21.11
2023-05-02T04:31:13.382Z,21.10
2023-05-02T04:32:13.312Z,21.09
2023-05-02T04:33:13.372Z,21.10
2023-05-02T04:34:13.365Z,21.09
2023-05-02T04:35:13.358Z,21.10
2023-05-02T04:36:13.365Z,21.09
2023-05-02T04:37:13.380Z,21.09
2023-05-02T04:38:13.371Z,21.09
2023-05-02T04:39:13.400Z,21.09
2023-05-02T04:40:13.400Z,21.09
2023-05-02T04:41:13.430Z,21.09
2023-05-02T04:42:13.415Z,21.09
2023-05-02T04:43:13.451Z,21.09
2023-05-02T04:44:13.462Z,21.09
2023-05-02T04:45:13.465Z,21.09
2023-05-02T04:46:13.584Z,21.09
2023-05-02T04:47:13.524Z,21.09
2023-05-02T04:48:13.550Z,21.08
2023-05-02T04:49:13.515Z,21.09
2023-05-02T04:50:13.579Z,21.08
2023-05-02T04:51:16.251Z,21.08
2023-05-02T04:52:13.552Z,21.08
2023-05-02T04:53:13.500Z,21.08
2023-05-02T04:54:13.550Z,21.07
2023-05-02T04:55:13.504Z,21.07
2023-05-02T04:56:13.515Z,21.07
2023-05-02T04:57:13.489Z,21.08
2023-05-02T04:58:13.486Z,21.07
2023-05-02T04:59:13.509Z,21.07
2023-05-02T05:00:13.473Z,21.07
2023-05-02T05:01:13.511Z,21.08
2023-05-02T05:02:13.589Z,21.07
2023-05-02T05:03:13.534Z,21.07
2023-05-02T05:04:13.662Z,21.07
2023-05-02T05:05:13.553Z,21.07
2023-05-02T05:06:13.508Z,21.06
2023-05-02T05:07:13.427Z,21.07
2023-05-02T05:08:13.450Z,21.07
2023-05-02T05:09:13.417Z,21.06
2023-05-02T05:10:13.437Z,21.07
2023-05-02T05:11:16.342Z,21.07
2023-05-02T05:12:13.399Z,21.06
2023-05-02T05:13:13.403Z,21.07
2023-05-02T05:14:13.382Z,21.06
2023-05-02T05:15:13.404Z,21.06
2023-05-02T05:16:13.490Z,21.06
2023-05-02T05:17:13.387Z,21.07
2023-05-02T05:18:13.412Z,21.05
2023-05-02T05:19:13.349Z,21.06
2023-05-02T05:20:13.379Z,21.05
2023-05-02T05:21:13.343Z,21.05
2023-05-02T05:22:13.317Z,21.06
2023-05-02T05:23:13.322Z,21.05
2023-05-02T05:24:13.296Z,21.05
2023-05-02T05:25:13.307Z,21.05
2023-05-02T05:26:13.335Z,21.06
2023-05-02T05:27:13.287Z,21.05
2023-05-02T05:28:13.289Z,21.05
2023-05-02T05:29:13.286Z,21.05
2023-05-02T05:30:13.266Z,21.06
2023-05-02T05:31:15.250Z,21.05
2023-05-02T05:32:13.288Z,21.04
2023-05-02T05:33:13.358Z,21.05
2023-05-02T05:34:13.303Z,21.05
2023-05-02T05:35:13.241Z,21.05
2023-05-02T05:36:13.229Z,21.05
2023-05-02T05:37:13.240Z,21.05
2023-05-02T05:38:13.207Z,21.05
2023-05-02T05:39:13.214Z,21.05
2023-05-02T05:40:13.228Z,21.04
2023-05-02T05:41:13.208Z,21.04
2023-05-02T05:42:13.182Z,21.04
2023-05-02T05:43:13.837Z,21.04
2023-05-02T05:44:13.199Z,21.04
2023-05-02T05:45:13.168Z,21.05
2023-05-02T05:46:13.157Z,21.05
2023-05-02T05:47:13.235Z,21.04
2023-05-02T05:48:13.191Z,21.05
2023-05-02T05:49:13.144Z,21.05
2023-05-02T05:50:13.358Z,21.05
2023-05-02T05:51:13.130Z,21.05
2023-05-02T05:52:13.123Z,21.04
2023-05-02T05:53:13.109Z,21.04
2023-05-02T05:54:13.138Z,21.04
2023-05-02T05:55:13.112Z,21.04
2023-05-02T05:56:13.099Z,21.03
2023-05-02T05:57:13.096Z,21.03
2023-05-02T05:58:13.121Z,21.06
2023-05-02T05:59:13.090Z,21.08
2023-05-02T06:00:13.093Z,21.11
2023-05-02T06:01:13.070Z,21.14
2023-05-02T06:02:13.080Z,21.17
2023-05-02T06:03:13.174Z,21.21
2023-05-02T06:04:13.182Z,21.23
2023-05-02T06:05:13.193Z,21.26
2023-05-02T06:06:13.132Z,21.30
2023-05-02T06:07:13.054Z,21.30
2023-05-02T06:08:12.999Z,21.33
2023-05-02T06:09:13.025Z,21.38
2023-05-02T06:10:13.033Z,21.42
2023-05-02T06:11:13.001Z,21.45
2023-05-02T06:12:13.011Z,21.47
2023-05-02T06:13:12.984Z,21.52
2023-05-02T06:14:12.985Z,21.55
2023-05-02T06:16:05.123Z,21.63
2023-05-02T06:17:05.092Z,21.70
2023-05-02T06:19:07.798Z,21.78
2023-05-02T06:20:07.788Z,21.82
2023-05-02T06:21:24.761Z,21.85
2023-05-02T06:22:25.443Z,21.89
2023-05-02T06:23:24.740Z,21.92
2023-05-02T06:24:24.780Z,21.94
2023-05-02T06:25:33.230Z,21.95
2023-05-02T06:27:03.417Z,21.98
2023-05-02T06:28:03.420Z,22.02
2023-05-02T06:29:03.411Z,22.03
2023-05-02T07:57:50.532Z,20.98
2023-05-02T07:58:50.525Z,21.03
2023-05-02T07:59:50.535Z,21.09
2023-05-02T08:00:50.722Z,21.13
2023-05-02T08:01:50.517Z,21.16
2023-05-02T08:02:50.550Z,21.20
2023-05-02T08:03:50.702Z,21.22
2023-05-02T08:04:50.514Z,21.26
2023-05-02T08:05:50.705Z,21.28
2023-05-02T08:06:50.666Z,21.31
2023-05-02T08:07:50.493Z,21.37
2023-05-02T08:08:50.477Z,21.39
2023-05-02T08:09:50.463Z,21.41
2023-05-02T08:10:50.715Z,21.44
2023-05-02T08:11:50.460Z,21.46
2023-05-02T08:12:50.458Z,21.48
2023-05-02T08:13:50.461Z,21.49
2023-05-02T08:14:50.444Z,21.49
2023-05-02T08:15:50.461Z,21.50
2023-05-02T08:16:50.465Z,21.49
2023-05-02T08:17:50.452Z,21.49
2023-05-02T08:18:50.395Z,21.50
2023-05-02T08:19:50.413Z,21.51
2023-05-02T08:20:50.412Z,21.51
2023-05-02T08:21:50.391Z,21.52
2023-05-02T08:22:50.380Z,21.51
2023-05-02T08:23:50.366Z,21.50
2023-05-02T08:24:50.370Z,21.51
2023-05-02T08:25:50.438Z,21.50
2023-05-02T08:26:50.372Z,21.50
2023-05-02T08:27:50.357Z,21.49
2023-05-02T08:28:50.349Z,21.50
2023-05-02T08:29:50.361Z,21.50
2023-05-02T08:30:50.408Z,21.49
2023-05-02T08:31:50.493Z,21.49
2023-05-02T08:32:50.588Z,21.48
2023-05-02T08:33:50.618Z,21.48
2023-05-02T08:34:50.589Z,21.47
2023-05-02T08:35:50.719Z,21.47
2023-05-02T08:36:50.682Z,21.47
2023-05-02T08:37:50.730Z,21.47
2023-05-02T08:38:50.798Z,21.46
2023-05-02T08:39:50.821Z,21.45
2023-05-02T08:40:51.228Z,21.43
2023-05-02T08:41:50.959Z,21.36
2023-05-02T08:42:51.010Z,21.31
2023-05-02T08:43:51.049Z,21.25
2023-05-02T08:44:51.044Z,21.19
2023-05-02T08:45:51.339Z,21.16
2023-05-02T08:46:51.168Z,21.13
2023-05-02T08:47:51.111Z,21.10
2023-05-02T08:48:51.063Z,21.07
2023-05-02T08:49:51.049Z,21.05
2023-05-02T08:50:51.220Z,20.99
2023-05-02T08:51:51.057Z,20.96
2023-05-02T08:52:51.119Z,20.96
2023-05-02T08:53:51.167Z,20.97
2023-05-02T08:54:51.117Z,21.00
2023-05-02T08:55:51.260Z,21.04
2023-05-02T08:56:51.192Z,21.07
2023-05-02T08:57:51.129Z,21.12
2023-05-02T08:58:51.139Z,21.19
2023-05-02T08:59:51.189Z,21.25
2023-05-02T09:00:51.250Z,21.31
2023-05-02T09:01:51.303Z,21.38
2023-05-02T09:02:51.363Z,21.44
2023-05-02T09:03:51.439Z,21.50
2023-05-02T09:04:51.482Z,21.55
2023-05-02T09:05:51.473Z,21.60
2023-05-02T09:06:51.575Z,21.66
2023-05-02T09:07:51.550Z,21.71
2023-05-02T09:08:51.602Z,21.74
2023-05-02T09:09:51.625Z,21.79
2023-05-02T09:10:51.671Z,21.83
2023-05-02T09:11:51.695Z,21.88
2023-05-02T09:12:51.706Z,21.91
2023-05-02T09:13:51.752Z,21.94
2023-05-02T09:14:51.704Z,21.96
2023-05-02T09:15:51.784Z,22.00
2023-05-02T09:16:51.805Z,22.02
2023-05-02T09:17:51.860Z,22.05
2023-05-02T09:18:51.794Z,22.07
2023-05-02T09:19:51.857Z,22.09
2023-05-02T09:20:51.850Z,22.09
2023-05-02T09:21:51.849Z,22.11
2023-05-02T09:22:51.878Z,22.11
2023-05-02T09:23:51.901Z,22.13
2023-05-02T09:24:51.933Z,22.16
2023-05-02T09:25:51.939Z,22.17
2023-05-02T09:26:51.927Z,22.18
2023-05-02T09:27:52.002Z,22.19
2023-05-02T09:28:51.961Z,22.19
2023-05-02T09:29:51.965Z,22.20
2023-05-02T09:30:52.036Z,22.21
2023-05-02T09:31:56.121Z,22.20
2023-05-02T09:32:52.038Z,22.21
2023-05-02T09:33:51.982Z,22.21
2023-05-02T09:34:51.966Z,22.22
2023-05-02T09:35:51.977Z,22.23
2023-05-02T09:36:52.063Z,22.23
2023-05-02T09:37:51.940Z,22.23
2023-05-02T09:38:51.964Z,22.23
2023-05-02T09:39:52.157Z,22.24
2023-05-02T09:40:52.250Z,22.24
2023-05-02T09:41:51.950Z,22.22
2023-05-02T09:42:51.912Z,22.20
2023-05-02T09:43:51.922Z,22.20
2023-05-02T09:44:51.894Z,22.17
2023-05-02T09:45:52.261Z,22.15
2023-05-02T09:46:51.889Z,22.13
2023-05-02T09:47:51.936Z,22.13
2023-05-02T09:48:51.897Z,22.12
2023-05-02T09:49:52.675Z,22.12
2023-05-02T09:50:52.265Z,22.13
2023-05-02T09:51:52.133Z,22.13
2023-05-02T09:52:51.852Z,22.15
2023-05-02T09:53:51.855Z,22.16
2023-05-02T09:54:51.830Z,22.18
2023-05-02T09:55:51.838Z,22.18
2023-05-02T09:56:51.853Z,22.20
2023-05-02T09:57:51.844Z,22.22
2023-05-02T09:58:51.852Z,22.23
2023-05-02T09:59:51.821Z,22.24
2023-05-02T10:00:51.829Z,22.25
2023-05-02T10:01:51.930Z,22.26
2023-05-02T10:02:51.848Z,22.27
2023-05-02T10:03:51.811Z,22.28
2023-05-02T10:04:51.876Z,22.27
2023-05-02T10:05:51.803Z,22.28
2023-05-02T10:06:51.822Z,22.29
2023-05-02T10:07:51.791Z,22.30
2023-05-02T10:08:51.743Z,22.30
2023-05-02T10:09:51.816Z,22.32
2023-05-02T10:10:51.765Z,22.32
2023-05-02T10:11:51.794Z,22.34
2023-05-02T10:12:51.733Z,22.34
2023-05-02T10:13:51.714Z,22.35
2023-05-02T10:14:51.736Z,22.36
2023-05-02T10:15:51.764Z,22.36
2023-05-02T10:16:51.762Z,22.37
2023-05-02T10:17:51.749Z,22.36
2023-05-02T10:18:51.719Z,22.38
2023-05-02T10:19:51.707Z,22.39
2023-05-02T10:20:51.720Z,22.40
2023-05-02T10:21:51.682Z,22.41
2023-05-02T10:22:51.691Z,22.41
2023-05-02T10:23:51.727Z,22.41
2023-05-02T10:24:51.680Z,22.42
2023-05-02T10:25:51.659Z,22.43
2023-05-02T10:26:51.673Z,22.44
2023-05-02T10:27:51.690Z,22.44
2023-05-02T10:28:51.635Z,22.44
2023-05-02T10:29:51.640Z,22.45
2023-05-02T10:30:51.637Z,22.45
2023-05-02T10:31:51.634Z,22.46
2023-05-02T10:32:51.660Z,22.46
2023-05-02T10:33:51.611Z,22.46
2023-05-02T10:34:51.601Z,22.46
2023-05-02T10:35:51.789Z,22.46
2023-05-02T10:36:51.608Z,22.44
2023-05-02T10:37:51.600Z,22.41
2023-05-02T10:38:51.630Z,22.37
2023-05-02T10:39:51.610Z,22.31
2023-05-02T10:40:51.789Z,22.24
2023-05-02T10:41:51.583Z,22.17
2023-05-02T10:42:51.539Z,22.11
2023-05-02T10:43:51.557Z,22.05
2023-05-02T10:44:51.573Z,21.99
2023-05-02T10:45:51.544Z,21.95
2023-05-02T10:46:51.536Z,21.90
2023-05-02T10:47:51.631Z,21.87
2023-05-02T10:48:51.651Z,21.84
2023-05-02T10:49:51.696Z,21.79
2023-05-02T10:50:51.779Z,21.75
2023-05-02T10:51:51.826Z,21.72
2023-05-02T10:52:51.888Z,21.68
2023-05-02T10:53:51.972Z,21.65
2023-05-02T10:54:52.027Z,21.63
2023-05-02T10:55:52.078Z,21.61
2023-05-02T10:56:59.582Z,21.61
2023-05-02T10:57:52.115Z,21.57
2023-05-02T10:58:52.099Z,21.56
2023-05-02T10:59:52.116Z,21.54
2023-05-02T11:00:52.111Z,21.53
2023-05-02T11:01:52.098Z,21.53
2023-05-02T11:02:52.184Z,21.52
2023-05-02T11:03:52.069Z,21.51
2023-05-02T11:04:52.066Z,21.49
2023-05-02T11:05:52.043Z,21.48
2023-05-02T11:06:52.043Z,21.47
2023-05-02T11:07:52.005Z,21.46
2023-05-02T11:08:52.048Z,21.45
2023-05-02T11:09:52.005Z,21.45
2023-05-02T11:10:52.028Z,21.43
2023-05-02T11:11:51.985Z,21.42
2023-05-02T11:12:52.053Z,21.41
2023-05-02T11:13:51.958Z,21.40
2023-05-02T11:14:51.972Z,21.41
2023-05-02T11:15:51.988Z,21.41
2023-05-02T11:16:52.004Z,21.42
2023-05-02T11:17:51.988Z,21.43
2023-05-02T11:18:51.944Z,21.44
2023-05-02T11:19:51.932Z,21.46
2023-05-02T11:20:51.942Z,21.47
2023-05-02T11:21:52.016Z,21.48
2023-05-02T11:22:51.919Z,21.49
2023-05-02T11:23:51.929Z,21.51
2023-05-02T11:24:51.898Z,21.52
2023-05-02T11:25:51.954Z,21.53
2023-05-02T11:26:51.992Z,21.54
2023-05-02T11:27:52.031Z,21.54
2023-05-02T11:28:52.097Z,21.55
2023-05-02T11:29:52.127Z,21.56
2023-05-02T11:30:52.292Z,21.56
2023-05-02T11:31:52.320Z,21.56
2023-05-02T11:32:52.350Z,21.57
2023-05-02T11:33:52.411Z,21.58
2023-05-02T11:34:52.488Z,21.58
2023-05-02T11:35:52.806Z,21.58
2023-05-02T11:36:52.593Z,21.59
2023-05-02T11:37:52.662Z,21.58
2023-05-02T11:38:52.716Z,21.58
2023-05-02T11:39:52.766Z,21.57
2023-05-02T11:40:52.847Z,21.58
2023-05-02T11:41:53.013Z,21.58
2023-05-02T11:42:53.038Z,21.58
2023-05-02T11:43:53.068Z,21.58
2023-05-02T11:44:53.111Z,21.58
2023-05-02T11:45:53.190Z,21.57
2023-05-02T11:46:53.253Z,21.56
2023-05-02T11:47:53.293Z,21.57
2023-05-02T11:48:53.361Z,21.55
2023-05-02T11:49:53.424Z,21.56
2023-05-02T11:50:53.505Z,21.56
2023-05-02T11:51:53.597Z,21.56
2023-05-02T11:52:53.668Z,21.56
2023-05-02T11:53:53.713Z,21.56
2023-05-02T11:54:53.743Z,21.55
2023-05-02T11:55:53.790Z,21.56
2023-05-02T11:56:53.872Z,21.55
2023-05-02T11:57:53.946Z,21.55
2023-05-02T11:58:53.994Z,21.55
2023-05-02T11:59:54.069Z,21.55
2023-05-02T12:00:54.142Z,21.55
2023-05-02T12:01:54.162Z,21.55
2023-05-02T12:02:54.295Z,21.55
2023-05-02T12:03:54.354Z,21.54
2023-05-02T12:04:54.328Z,21.55
2023-05-02T12:05:54.486Z,21.54
2023-05-02T12:06:54.513Z,21.54
2023-05-02T12:07:54.514Z,21.54
2023-05-02T12:08:54.557Z,21.53
2023-05-02T12:09:54.619Z,21.53
2023-05-02T12:10:54.681Z,21.53
2023-05-02T12:11:54.708Z,21.53
2023-05-02T12:12:54.790Z,21.52
2023-05-02T12:13:54.816Z,21.52
2023-05-02T12:14:54.874Z,21.51
2023-05-02T12:15:54.995Z,21.50
2023-05-02T12:16:54.985Z,21.50
2023-05-02T12:17:55.176Z,21.49
2023-05-02T12:18:55.121Z,21.48
2023-05-02T12:19:55.152Z,21.49
2023-05-02T12:20:55.240Z,21.48
2023-05-02T12:21:55.237Z,21.48
2023-05-02T12:22:55.306Z,21.48
2023-05-02T12:23:55.344Z,21.47
2023-05-02T12:24:55.365Z,21.46
2023-05-02T12:25:55.437Z,21.47
2023-05-02T12:26:55.475Z,21.47
2023-05-02T12:27:55.532Z,21.46
2023-05-02T12:28:55.565Z,21.46
2023-05-02T12:29:55.601Z,21.46
2023-05-02T12:30:55.678Z,21.46
2023-05-02T12:31:55.759Z,21.46
2023-05-02T12:32:55.788Z,21.46
2023-05-02T12:33:55.789Z,21.45
2023-05-02T12:34:55.859Z,21.45
2023-05-02T12:35:55.900Z,21.45
2023-05-02T12:36:55.972Z,21.44
2023-05-02T12:37:55.981Z,21.44
2023-05-02T12:38:56.022Z,21.44
2023-05-02T12:39:56.090Z,21.44
2023-05-02T12:40:56.142Z,21.44
2023-05-02T12:41:56.214Z,21.44
2023-05-02T12:42:56.280Z,21.43
2023-05-02T12:43:56.282Z,21.44
2023-05-02T12:44:56.306Z,21.43
2023-05-02T12:45:56.362Z,21.44
2023-05-02T12:46:56.412Z,21.44
2023-05-02T12:47:56.476Z,21.44
2023-05-02T12:48:56.467Z,21.43
2023-05-02T12:49:56.517Z,21.44
2023-05-02T12:50:56.559Z,21.44
2023-05-02T12:51:56.570Z,21.44
2023-05-02T12:52:56.641Z,21.44
2023-05-02T12:53:56.656Z,21.43
2023-05-02T12:54:56.710Z,21.43
2023-05-02T12:55:56.745Z,21.44
2023-05-02T12:56:56.790Z,21.43
2023-05-02T12:57:56.761Z,21.43
2023-05-02T12:58:56.814Z,21.43
2023-05-02T12:59:56.818Z,21.44
2023-05-02T13:00:56.882Z,21.43
2023-05-02T13:01:56.868Z,21.43
2023-05-02T13:02:56.929Z,21.43
2023-05-02T13:03:56.951Z,21.44
2023-05-02T13:04:56.928Z,21.43
2023-05-02T13:05:56.944Z,21.43
2023-05-02T13:06:57.116Z,21.43
2023-05-02T13:07:56.996Z,21.43
2023-05-02T13:08:57.033Z,21.44
2023-05-02T13:09:57.070Z,21.43
2023-05-02T13:10:57.108Z,21.42
2023-05-02T13:11:57.116Z,21.43
2023-05-02T13:12:57.122Z,21.42
2023-05-02T13:13:57.130Z,21.42
2023-05-02T13:14:57.185Z,21.42
2023-05-02T13:15:57.133Z,21.42
2023-05-02T13:16:57.318Z,21.42
2023-05-02T13:17:57.329Z,21.43
2023-05-02T13:18:57.311Z,21.42
2023-05-02T13:20:01.372Z,21.42
2023-05-02T13:20:57.257Z,21.42
2023-05-02T13:21:57.224Z,21.42
2023-05-02T13:22:57.221Z,21.41
2023-05-02T13:23:57.221Z,21.40
2023-05-02T13:24:57.208Z,21.40
2023-05-02T13:25:57.196Z,21.40
2023-05-02T13:26:57.208Z,21.40
2023-05-02T13:27:57.207Z,21.40
2023-05-02T13:28:57.188Z,21.40
2023-05-02T13:29:57.164Z,21.39
2023-05-02T13:30:57.243Z,21.41
2023-05-02T13:31:57.182Z,21.40
2023-05-02T13:32:57.258Z,21.40
2023-05-02T13:33:57.202Z,21.40
2023-05-02T13:34:57.230Z,21.40
2023-05-02T13:35:57.282Z,21.40
2023-05-02T13:36:57.290Z,21.39
2023-05-02T13:37:57.322Z,21.39
2023-05-02T13:38:57.351Z,21.39
2023-05-02T13:39:57.359Z,21.39
2023-05-02T13:40:57.391Z,21.38
2023-05-02T13:41:57.409Z,21.38
2023-05-02T13:42:57.389Z,21.38
2023-05-02T13:43:57.447Z,21.38
2023-05-02T13:44:57.490Z,21.38
2023-05-02T13:45:57.508Z,21.38
2023-05-02T13:46:57.503Z,21.38
2023-05-02T13:47:57.576Z,21.38
2023-05-02T13:48:57.532Z,21.37
2023-05-02T13:49:57.590Z,21.38
2023-05-02T13:50:57.631Z,21.37
2023-05-02T13:51:57.578Z,21.37
2023-05-02T13:52:57.616Z,21.36
2023-05-02T13:53:57.629Z,21.36
2023-05-02T13:54:57.658Z,21.36
2023-05-02T13:55:57.721Z,21.34
2023-05-02T13:56:57.723Z,21.34
2023-05-02T13:57:57.769Z,21.34
2023-05-02T13:58:57.800Z,21.35
2023-05-02T13:59:57.812Z,21.34
2023-05-02T14:00:57.840Z,21.34
2023-05-02T14:01:57.935Z,21.34
2023-05-02T14:02:57.954Z,21.33
2023-05-02T14:03:57.921Z,21.33
2023-05-02T14:04:57.853Z,21.33
2023-05-02T14:05:57.970Z,21.33
2023-05-02T14:06:57.870Z,21.33
2023-05-02T14:07:57.901Z,21.33
2023-05-02T14:08:57.919Z,21.33
2023-05-02T14:09:57.926Z,21.33
2023-05-02T14:10:57.974Z,21.32
2023-05-02T14:11:57.950Z,21.32
2023-05-02T14:12:57.990Z,21.32
2023-05-02T14:13:58.007Z,21.32
2023-05-02T14:14:57.959Z,21.31
2023-05-02T14:15:58.066Z,21.31
2023-05-02T14:16:58.016Z,21.31
2023-05-02T14:17:58.181Z,21.31
2023-05-02T14:18:58.109Z,21.31
2023-05-02T14:19:58.078Z,21.31
2023-05-02T14:20:58.080Z,21.32
2023-05-02T14:21:58.068Z,21.30
2023-05-02T14:22:58.099Z,21.30